Time;durP1;ratioP1;P1;durP2;ratioP2;P2;SDS_P1;SDS_P2;PMS_P1;PMS_P2;Temp;Humidity;BMP_temperature;BMP_pressure;BME280_temperature;BME280_humidity;BME280_pressure;Samples;Min_cycle;Max_cycle;Signal;HPM_P1;HPM_P2
2022/12/09 00:01:19;;;;;;;21.03;18.10;;;1.70;99.90;;;;;;4983035;28;20376;-82
2022/12/09 00:03:46;;;;;;;16.03;14.53;;;1.70;99.90;;;;;;4998690;28;20045;-82
2022/12/09 00:06:15;;;;;;;21.53;17.97;;;1.70;99.90;;;;;;4961846;28;20054;-82
2022/12/09 00:08:41;;;;;;;19.33;16.33;;;1.60;99.90;;;;;;4953488;28;20042;-82
2022/12/09 00:11:07;;;;;;;22.23;18.13;;;1.60;99.90;;;;;;4991090;28;20031;-82
2022/12/09 00:13:33;;;;;;;23.87;18.53;;;1.60;99.90;;;;;;4993317;28;20034;-82
2022/12/09 00:16:03;;;;;;;24.23;18.17;;;1.60;99.90;;;;;;4961675;28;20026;-82
2022/12/09 00:18:29;;;;;;;21.20;18.83;;;1.50;99.90;;;;;;4978320;28;20046;-82
2022/12/09 00:20:55;;;;;;;24.97;20.07;;;1.60;99.90;;;;;;4977997;28;20027;-82
2022/12/09 00:23:21;;;;;;;24.23;19.50;;;1.60;99.90;;;;;;5026327;28;20038;-82
2022/12/09 00:25:47;;;;;;;22.80;18.67;;;1.60;99.90;;;;;;4999789;28;20041;-82
2022/12/09 00:28:14;;;;;;;25.57;19.20;;;1.50;99.90;;;;;;4990215;28;20404;-82
2022/12/09 00:30:40;;;;;;;25.93;19.13;;;1.50;99.90;;;;;;4986865;28;20031;-82
2022/12/09 00:33:06;;;;;;;22.63;20.33;;;1.60;99.90;;;;;;4977795;28;20033;-82
2022/12/09 00:35:32;;;;;;;20.30;18.10;;;1.60;99.90;;;;;;4994013;28;20490;-82
2022/12/09 00:37:58;;;;;;;22.47;18.07;;;1.60;99.90;;;;;;4977616;28;20037;-82
2022/12/09 00:40:24;;;;;;;22.87;17.40;;;1.50;99.90;;;;;;4992993;28;20376;-82
2022/12/09 00:42:50;;;;;;;24.60;20.50;;;1.50;99.90;;;;;;4950818;28;20041;-82
2022/12/09 00:45:16;;;;;;;21.00;18.80;;;1.50;99.90;;;;;;5008617;28;20098;-82
2022/12/09 00:47:42;;;;;;;22.00;19.87;;;1.40;99.90;;;;;;4961543;28;20043;-82
2022/12/09 00:50:09;;;;;;;23.77;19.70;;;1.50;99.90;;;;;;4978181;28;20472;-82
2022/12/09 00:52:35;;;;;;;23.30;19.00;;;1.50;99.90;;;;;;4977734;28;20041;-82
2022/12/09 00:55:01;;;;;;;19.20;17.40;;;1.50;99.90;;;;;;4976949;28;20038;-82
2022/12/09 00:57:27;;;;;;;15.53;13.93;;;1.40;99.90;;;;;;4989113;28;20038;-82
2022/12/09 00:59:53;;;;;;;21.30;19.10;;;1.30;99.90;;;;;;4960091;28;20054;-82
2022/12/09 01:02:19;;;;;;;20.70;18.43;;;1.30;99.90;;;;;;4992776;28;20496;-82
2022/12/09 01:04:48;;;;;;;20.33;16.17;;;1.40;99.90;;;;;;4992230;28;20042;-83
2022/12/09 01:07:14;;;;;;;23.83;18.10;;;1.30;99.90;;;;;;4993169;28;20077;-82
2022/12/09 01:09:40;;;;;;;12.73;11.53;;;1.30;99.90;;;;;;4977128;28;20050;-83
2022/12/09 01:12:06;;;;;;;18.40;15.83;;;1.30;99.90;;;;;;4994045;28;20037;-83
2022/12/09 01:14:32;;;;;;;18.37;16.23;;;1.30;99.90;;;;;;4992240;28;20038;-82
2022/12/09 01:16:58;;;;;;;21.23;18.97;;;1.20;99.90;;;;;;4982494;28;20046;-82
2022/12/09 01:19:24;;;;;;;20.33;15.93;;;1.20;99.90;;;;;;4998490;28;20046;-83
2022/12/09 01:21:54;;;;;;;16.90;15.10;;;1.20;99.90;;;;;;5001050;28;20042;-82
2022/12/09 01:24:20;;;;;;;18.30;16.17;;;1.20;99.90;;;;;;4978050;28;20360;-82
2022/12/09 01:26:46;;;;;;;14.37;13.17;;;1.20;99.90;;;;;;4992373;28;20046;-82
2022/12/09 01:29:12;;;;;;;23.67;20.20;;;1.20;99.90;;;;;;4992967;28;20061;-82
2022/12/09 01:31:38;;;;;;;18.37;16.47;;;1.20;99.90;;;;;;4991393;28;20034;-82
2022/12/09 01:34:04;;;;;;;20.07;18.00;;;1.20;99.90;;;;;;4980670;28;20042;-82
2022/12/09 01:36:30;;;;;;;21.70;17.57;;;1.20;99.90;;;;;;4976621;28;20033;-82
2022/12/09 01:38:57;;;;;;;22.33;19.97;;;1.10;99.90;;;;;;4976591;28;20094;-82
2022/12/09 01:41:23;;;;;;;22.47;18.20;;;1.00;99.90;;;;;;4959213;28;20046;-82
2022/12/09 01:44:11;;;;;;;23.13;20.37;;;1.00;99.90;;;;;;4958757;28;20050;-82
2022/12/09 01:46:37;;;;;;;19.30;16.23;;;1.00;99.90;;;;;;5002346;28;20042;-83
2022/12/09 01:49:03;;;;;;;17.67;15.87;;;1.10;99.90;;;;;;5012837;28;20030;-83
2022/12/09 01:51:29;;;;;;;26.13;21.70;;;1.00;99.90;;;;;;4991886;28;20034;-82
2022/12/09 01:53:55;;;;;;;22.00;19.70;;;1.00;99.90;;;;;;4988637;28;20034;-82
2022/12/09 01:56:29;;;;;;;20.43;18.17;;;1.00;99.90;;;;;;5000744;28;20046;-82
2022/12/09 01:58:57;;;;;;;22.60;20.17;;;1.00;99.90;;;;;;4996429;28;20037;-83
2022/12/09 02:01:23;;;;;;;20.67;16.27;;;0.90;99.90;;;;;;4977652;28;20405;-83
2022/12/09 02:03:49;;;;;;;24.17;21.43;;;1.00;99.90;;;;;;5001592;28;20221;-83
2022/12/09 02:06:15;;;;;;;31.47;20.97;;;1.00;99.90;;;;;;5008078;28;20067;-82
2022/12/09 02:08:42;;;;;;;23.93;21.27;;;1.10;99.90;;;;;;4990715;28;20030;-83
2022/12/09 02:11:27;;;;;;;27.90;21.37;;;1.10;99.90;;;;;;4959881;28;20042;-82
2022/12/09 02:14:15;;;;;;;24.27;21.20;;;1.10;99.90;;;;;;4993264;28;20033;-82
2022/12/09 02:17:02;;;;;;;28.10;20.27;;;1.10;99.90;;;;;;4975984;28;20419;-83
2022/12/09 02:19:50;;;;;;;27.07;21.43;;;1.10;99.90;;;;;;4998679;28;20038;-82
2022/12/09 02:22:19;;;;;;;17.50;15.90;;;1.00;99.90;;;;;;4993172;28;20042;-82
2022/12/09 02:25:20;;;;;;;26.70;21.17;;;1.10;99.90;;;;;;5008188;28;20041;-82
2022/12/09 02:28:29;;;;;;;24.38;20.45;;;1.00;99.90;;;;;;4979944;28;20073;-83
2022/12/09 02:31:17;;;;;;;28.40;21.40;;;1.00;99.90;;;;;;4963903;28;20034;-83
2022/12/09 02:34:11;;;;;;;26.23;21.30;;;1.10;99.90;;;;;;4974553;28;20133;-83
2022/12/09 02:36:58;;;;;;;23.97;19.17;;;1.20;99.90;;;;;;4990668;28;20034;-82
2022/12/09 02:39:38;;;;;;;26.17;18.80;;;1.10;99.90;;;;;;4990495;28;20043;-82
2022/12/09 02:42:05;;;;;;;27.47;21.53;;;1.10;99.90;;;;;;4957965;28;20034;-82
2022/12/09 02:44:31;;;;;;;25.83;20.87;;;1.10;99.90;;;;;;4973540;28;20034;-82
2022/12/09 02:46:57;;;;;;;23.07;20.70;;;1.00;99.90;;;;;;4941450;28;20031;-82
2022/12/09 02:49:23;;;;;;;27.57;23.50;;;1.00;99.90;;;;;;4974487;28;20039;-83
2022/12/09 02:51:49;;;;;;;27.83;21.53;;;1.00;99.90;;;;;;4973148;28;20035;-83
2022/12/09 02:54:16;;;;;;;27.03;19.13;;;1.10;99.90;;;;;;4962329;28;20042;-82
2022/12/09 02:56:46;;;;;;;25.60;21.07;;;1.00;99.90;;;;;;4952923;28;20099;-82
2022/12/09 02:59:12;;;;;;;28.07;22.40;;;1.00;99.90;;;;;;4978370;28;20483;-83
2022/12/09 03:01:47;;;;;;;26.17;22.00;;;1.10;99.90;;;;;;4977238;28;20049;-83
2022/12/09 03:04:20;;;;;;;27.17;22.40;;;1.20;99.90;;;;;;4952822;28;20035;-82
2022/12/09 03:06:52;;;;;;;14.40;13.03;;;1.20;99.90;;;;;;4955760;28;20038;-82
2022/12/09 03:09:36;;;;;;;27.30;20.87;;;1.10;99.90;;;;;;4971935;28;20391;-83
2022/12/09 03:12:05;;;;;;;23.60;20.27;;;1.10;99.90;;;;;;4977183;28;20038;-83
2022/12/09 03:14:37;;;;;;;24.10;20.33;;;1.00;99.90;;;;;;4993187;28;20054;-82
2022/12/09 03:17:11;;;;;;;13.73;12.63;;;1.00;99.90;;;;;;4961587;28;20383;-83
2022/12/09 03:19:40;;;;;;;15.30;13.87;;;1.00;99.90;;;;;;4990545;28;20046;-82
2022/12/09 03:22:09;;;;;;;17.27;15.67;;;1.00;99.90;;;;;;5010615;28;20042;-82
2022/12/09 03:24:43;;;;;;;19.67;17.60;;;0.90;99.90;;;;;;5010187;28;20046;-83
2022/12/09 03:27:11;;;;;;;17.07;14.97;;;0.90;99.90;;;;;;4971428;28;20042;-82
2022/12/09 03:29:38;;;;;;;24.60;21.97;;;1.00;99.90;;;;;;5010071;28;20506;-83
2022/12/09 03:32:04;;;;;;;17.30;15.70;;;1.00;99.90;;;;;;4979736;28;20038;-83
2022/12/09 03:34:32;;;;;;;21.33;19.13;;;1.00;99.90;;;;;;5010116;28;20027;-82
2022/12/09 03:36:58;;;;;;;20.07;17.90;;;1.00;99.90;;;;;;4999702;28;20049;-82
2022/12/09 03:39:26;;;;;;;23.43;20.87;;;1.00;99.90;;;;;;4993980;28;20054;-84
2022/12/09 03:41:56;;;;;;;27.27;22.63;;;1.10;99.90;;;;;;4971821;28;20037;-87
2022/12/09 03:44:45;;;;;;;25.27;21.88;;;1.00;99.90;;;;;;4985308;28;20045;-83
2022/12/09 03:47:12;;;;;;;21.27;18.23;;;1.10;99.90;;;;;;4992356;28;20100;-84
2022/12/09 03:49:38;;;;;;;30.37;22.90;;;1.10;99.90;;;;;;4956223;28;20050;-85
2022/12/09 03:52:09;;;;;;;26.83;20.00;;;1.10;99.90;;;;;;4977567;28;20120;-85
2022/12/09 03:54:45;;;;;;;26.27;21.37;;;1.10;99.90;;;;;;4978481;28;20372;-84
2022/12/09 03:57:13;;;;;;;17.00;15.33;;;1.10;99.90;;;;;;4981455;28;20026;-85
2022/12/09 03:59:39;;;;;;;24.83;20.23;;;1.10;99.90;;;;;;4958153;28;20053;-85
2022/12/09 04:02:05;;;;;;;30.83;22.60;;;1.10;99.90;;;;;;4982437;28;20105;-85
2022/12/09 04:04:33;;;;;;;29.60;23.33;;;1.10;99.90;;;;;;4993279;28;20041;-86
2022/12/09 04:06:59;;;;;;;31.67;23.40;;;1.20;99.90;;;;;;4957511;28;20054;-84
2022/12/09 04:09:25;;;;;;;27.90;23.33;;;1.20;99.90;;;;;;4993400;28;20364;-84
2022/12/09 04:11:51;;;;;;;24.43;21.83;;;1.30;99.90;;;;;;4973319;28;20420;-84
2022/12/09 04:14:17;;;;;;;18.50;15.57;;;1.20;99.90;;;;;;4994585;28;20037;-83
2022/12/09 04:16:43;;;;;;;17.57;15.87;;;1.30;99.90;;;;;;4991226;28;20046;-83
2022/12/09 04:19:10;;;;;;;21.20;17.03;;;1.20;99.90;;;;;;5008387;28;20069;-83
2022/12/09 04:21:36;;;;;;;17.60;15.97;;;1.20;99.90;;;;;;4978096;28;20045;-83
2022/12/09 04:24:02;;;;;;;18.17;16.33;;;1.10;99.90;;;;;;4977996;28;20030;-83
2022/12/09 04:26:28;;;;;;;14.93;13.73;;;1.20;99.90;;;;;;4977028;28;20054;-83
2022/12/09 04:28:54;;;;;;;32.90;24.57;;;1.10;99.90;;;;;;5010139;28;20033;-83
2022/12/09 04:31:20;;;;;;;31.83;22.87;;;1.10;99.90;;;;;;4992720;28;20030;-82
2022/12/09 04:33:46;;;;;;;17.53;15.63;;;1.10;99.90;;;;;;4993537;28;20037;-82
2022/12/09 04:36:14;;;;;;;24.97;21.47;;;1.10;99.90;;;;;;4957259;28;20054;-83
2022/12/09 04:38:40;;;;;;;26.97;21.27;;;1.10;99.90;;;;;;4990598;28;20035;-82
2022/12/09 04:41:06;;;;;;;29.50;22.53;;;1.10;99.90;;;;;;4991098;28;20043;-83
2022/12/09 04:43:33;;;;;;;30.83;24.77;;;1.10;99.90;;;;;;4992923;28;20046;-83
2022/12/09 04:46:00;;;;;;;22.10;19.37;;;1.10;99.90;;;;;;5009830;28;20026;-83
2022/12/09 04:48:26;;;;;;;34.27;24.03;;;1.10;99.90;;;;;;4994637;28;20471;-83
2022/12/09 04:50:52;;;;;;;41.50;27.43;;;1.10;99.90;;;;;;4977178;28;20547;-82
2022/12/09 04:53:18;;;;;;;30.00;23.23;;;1.10;99.90;;;;;;4977473;28;20030;-83
2022/12/09 04:55:44;;;;;;;36.37;25.63;;;1.10;99.90;;;;;;4993050;28;20030;-81
2022/12/09 04:58:11;;;;;;;40.77;28.43;;;1.20;99.90;;;;;;4975245;28;20034;-81
2022/12/09 05:00:37;;;;;;;60.63;24.33;;;1.30;99.90;;;;;;4991869;28;20043;-81
2022/12/09 05:03:03;;;;;;;86.60;28.87;;;1.30;99.90;;;;;;4988272;28;20030;-81
2022/12/09 05:05:29;;;;;;;56.50;28.57;;;1.30;99.90;;;;;;4961102;28;20042;-81
2022/12/09 05:07:55;;;;;;;19.87;16.03;;;1.30;99.90;;;;;;4977082;28;20352;-81
2022/12/09 05:10:22;;;;;;;19.57;17.23;;;1.20;99.90;;;;;;4960322;28;20068;-81
2022/12/09 05:12:48;;;;;;;16.80;14.87;;;1.20;99.90;;;;;;4960811;28;20046;-81
2022/12/09 05:15:14;;;;;;;15.30;14.07;;;1.20;99.90;;;;;;4956494;28;20043;-81
2022/12/09 05:17:40;;;;;;;22.70;17.53;;;1.10;99.90;;;;;;4989662;28;20033;-80
2022/12/09 05:20:07;;;;;;;32.07;21.73;;;1.20;99.90;;;;;;4993490;28;20077;-81
2022/12/09 05:22:33;;;;;;;28.03;21.30;;;1.10;99.90;;;;;;4974285;28;20407;-81
2022/12/09 05:25:00;;;;;;;24.87;18.57;;;1.20;99.90;;;;;;4973516;28;20042;-81
2022/12/09 05:27:26;;;;;;;31.40;20.17;;;1.20;99.90;;;;;;4978898;28;20042;-81
2022/12/09 05:29:52;;;;;;;139.23;30.17;;;1.20;99.90;;;;;;4997839;28;20046;-81
2022/12/09 05:32:18;;;;;;;41.67;25.43;;;1.20;99.90;;;;;;4990910;28;20049;-81
2022/12/09 05:34:44;;;;;;;74.47;28.17;;;1.20;99.90;;;;;;5009058;28;20023;-81
2022/12/09 05:37:14;;;;;;;40.60;26.87;;;1.30;99.90;;;;;;4991429;28;20053;-81
2022/12/09 05:39:40;;;;;;;21.73;17.97;;;1.20;99.90;;;;;;4992139;28;20042;-81
2022/12/09 05:42:06;;;;;;;18.50;16.60;;;1.20;99.90;;;;;;4989987;28;20058;-81
2022/12/09 05:44:32;;;;;;;34.87;24.30;;;1.20;99.90;;;;;;4992954;28;20391;-81
2022/12/09 05:46:58;;;;;;;27.50;20.53;;;1.20;99.90;;;;;;5007307;28;20046;-81
2022/12/09 05:49:24;;;;;;;29.40;23.33;;;1.30;99.90;;;;;;5008804;28;20328;-81
2022/12/09 05:51:51;;;;;;;54.60;26.53;;;1.30;99.90;;;;;;4976866;28;20039;-81
2022/12/09 05:54:17;;;;;;;20.40;17.47;;;1.30;99.90;;;;;;4992461;28;20026;-81
2022/12/09 05:56:43;;;;;;;42.50;26.10;;;1.20;99.90;;;;;;4990945;28;20041;-81
2022/12/09 05:59:09;;;;;;;38.90;24.17;;;1.20;99.90;;;;;;5004721;28;20027;-81
2022/12/09 06:01:35;;;;;;;38.83;26.33;;;1.30;99.90;;;;;;4997936;28;20057;-81
2022/12/09 06:04:02;;;;;;;30.17;22.97;;;1.30;99.90;;;;;;5008590;28;20106;-81
2022/12/09 06:06:30;;;;;;;23.50;19.10;;;1.30;99.90;;;;;;4992450;28;20514;-81
2022/12/09 06:08:57;;;;;;;63.73;29.30;;;1.30;99.90;;;;;;4992723;28;20045;-81
2022/12/09 06:11:24;;;;;;;71.67;28.90;;;1.30;99.90;;;;;;4992017;28;20046;-81
2022/12/09 06:13:50;;;;;;;52.97;24.53;;;1.40;99.90;;;;;;4991238;28;20035;-81
2022/12/09 06:16:19;;;;;;;57.40;29.77;;;1.40;99.90;;;;;;4975277;28;20082;-81
2022/12/09 06:18:45;;;;;;;45.30;30.13;;;1.40;99.90;;;;;;4992060;28;20049;-81
2022/12/09 06:21:12;;;;;;;40.90;27.73;;;1.50;99.90;;;;;;4991929;28;20491;-82
2022/12/09 06:23:42;;;;;;;37.33;25.77;;;1.50;99.90;;;;;;5023829;28;20034;-81
2022/12/09 06:26:20;;;;;;;45.33;28.53;;;1.60;99.90;;;;;;4991776;28;20519;-81
2022/12/09 06:28:46;;;;;;;43.50;23.13;;;1.60;99.90;;;;;;4972073;28;20035;-81
2022/12/09 06:31:12;;;;;;;39.33;29.33;;;1.60;99.90;;;;;;4971138;28;20046;-86
2022/12/09 06:33:38;;;;;;;43.20;29.10;;;1.50;99.90;;;;;;4991259;28;20751;-81
2022/12/09 06:36:05;;;;;;;39.60;27.60;;;1.60;99.90;;;;;;4976353;28;20038;-81
2022/12/09 06:38:31;;;;;;;41.03;26.27;;;1.80;99.90;;;;;;4961862;28;20046;-81
2022/12/09 06:40:57;;;;;;;46.37;28.67;;;1.70;99.90;;;;;;4978231;28;20041;-81
2022/12/09 06:43:23;;;;;;;43.63;29.80;;;1.70;99.90;;;;;;4954688;28;20043;-81
2022/12/09 06:45:49;;;;;;;38.60;28.23;;;1.70;99.90;;;;;;4989714;28;20034;-81
2022/12/09 06:48:15;;;;;;;45.70;25.83;;;1.80;99.90;;;;;;4959352;28;20055;-81
2022/12/09 06:50:42;;;;;;;43.60;30.90;;;1.70;99.90;;;;;;4975708;28;20030;-82
2022/12/09 06:53:08;;;;;;;28.00;17.60;;;1.70;99.90;;;;;;4972629;28;20050;-85
2022/12/09 06:55:34;;;;;;;45.37;30.40;;;1.70;99.90;;;;;;5009058;28;20030;-82
2022/12/09 06:58:00;;;;;;;45.03;30.00;;;1.70;99.90;;;;;;4982643;28;20043;-83
2022/12/09 07:00:26;;;;;;;38.53;28.37;;;1.70;99.90;;;;;;5002821;28;20046;-84
2022/12/09 07:02:52;;;;;;;40.30;27.67;;;1.70;99.90;;;;;;4959125;28;20057;-83
2022/12/09 07:05:19;;;;;;;43.67;30.23;;;1.70;99.90;;;;;;4975367;28;20046;-83
2022/12/09 07:07:51;;;;;;;93.27;33.40;;;1.70;99.90;;;;;;4959378;28;20463;-83
2022/12/09 07:10:17;;;;;;;47.33;31.57;;;1.80;99.90;;;;;;4983396;28;20046;-83
2022/12/09 07:12:44;;;;;;;45.60;31.57;;;1.80;99.90;;;;;;4981572;28;20495;-83
2022/12/09 07:15:10;;;;;;;46.00;32.50;;;1.70;99.90;;;;;;4990063;28;20034;-83
2022/12/09 07:17:36;;;;;;;41.97;28.97;;;1.70;99.90;;;;;;4975384;28;20031;-84
2022/12/09 07:20:03;;;;;;;43.17;30.50;;;1.70;99.90;;;;;;4968277;28;20054;-83
2022/12/09 07:22:32;;;;;;;47.30;31.90;;;1.70;99.90;;;;;;4985517;28;20055;-82
2022/12/09 07:24:58;;;;;;;50.37;31.47;;;1.70;99.90;;;;;;4962720;28;20043;-88
2022/12/09 07:27:24;;;;;;;39.57;30.13;;;1.80;99.90;;;;;;4979588;28;20484;-83
2022/12/09 07:29:50;;;;;;;48.87;32.23;;;2.00;99.90;;;;;;4991231;28;20046;-83
2022/12/09 07:32:16;;;;;;;49.13;32.33;;;1.90;99.90;;;;;;5021990;28;20373;-83
2022/12/09 07:34:42;;;;;;;47.93;33.80;;;1.90;99.90;;;;;;4991724;28;20042;-84
2022/12/09 07:37:08;;;;;;;48.40;32.23;;;1.90;99.90;;;;;;5012885;28;20034;-81
2022/12/09 07:39:35;;;;;;;47.40;32.17;;;1.90;99.90;;;;;;4975135;28;20404;-83
2022/12/09 07:42:01;;;;;;;52.07;33.00;;;2.00;99.90;;;;;;5003385;28;20042;-82
2022/12/09 07:44:27;;;;;;;46.57;31.87;;;2.00;99.90;;;;;;5005781;28;20034;-82
2022/12/09 07:46:54;;;;;;;50.10;30.23;;;2.00;99.90;;;;;;5004781;28;20042;-83
2022/12/09 07:49:20;;;;;;;45.67;30.93;;;2.10;99.90;;;;;;4994234;28;20039;-83
2022/12/09 07:51:46;;;;;;;47.43;30.77;;;2.00;99.90;;;;;;4994075;28;20030;-82
2022/12/09 07:54:13;;;;;;;43.27;29.57;;;2.10;99.90;;;;;;4994597;28;20038;-83
2022/12/09 07:56:39;;;;;;;46.17;29.67;;;2.10;99.90;;;;;;5007768;28;20095;-83
2022/12/09 07:59:06;;;;;;;48.50;32.00;;;2.10;99.90;;;;;;4998043;28;20383;-83
2022/12/09 08:01:33;;;;;;;47.77;30.63;;;2.00;99.90;;;;;;5013706;28;20045;-83
2022/12/09 08:04:00;;;;;;;46.13;30.37;;;2.00;99.90;;;;;;4994048;28;20033;-82
2022/12/09 08:06:28;;;;;;;71.93;32.37;;;1.90;99.90;;;;;;4985482;28;20030;-82
2022/12/09 08:08:57;;;;;;;45.00;30.53;;;1.80;99.90;;;;;;5001108;28;20030;-85
2022/12/09 08:11:25;;;;;;;49.20;31.00;;;1.80;99.90;;;;;;4980272;28;20400;-83
2022/12/09 08:13:51;;;;;;;46.23;30.20;;;1.80;99.90;;;;;;4993439;28;20035;-84
2022/12/09 08:16:19;;;;;;;46.13;30.60;;;1.70;99.90;;;;;;5005155;28;20049;-82
2022/12/09 08:18:45;;;;;;;53.50;29.67;;;1.70;99.90;;;;;;5001440;28;20037;-84
2022/12/09 08:21:13;;;;;;;46.23;29.37;;;1.70;99.90;;;;;;4962781;28;20053;-83
2022/12/09 08:23:39;;;;;;;48.90;28.97;;;1.70;99.90;;;;;;4990974;28;20019;-83
2022/12/09 08:26:06;;;;;;;43.20;27.07;;;1.70;99.90;;;;;;4975123;28;20074;-83
2022/12/09 08:28:32;;;;;;;45.83;31.00;;;1.70;99.90;;;;;;5005099;28;20030;-82
2022/12/09 08:30:58;;;;;;;46.37;28.57;;;1.70;99.90;;;;;;4978036;28;20034;-84
2022/12/09 08:33:24;;;;;;;42.47;27.37;;;1.70;99.90;;;;;;5001744;28;20043;-83
2022/12/09 08:35:50;;;;;;;40.90;26.97;;;1.70;99.90;;;;;;4989965;28;20029;-84
2022/12/09 08:38:16;;;;;;;43.97;29.13;;;1.70;99.90;;;;;;4986708;28;20041;-85
2022/12/09 08:40:42;;;;;;;46.73;30.80;;;2.00;99.90;;;;;;4981266;28;20039;-83
2022/12/09 08:43:08;;;;;;;48.23;29.53;;;2.00;99.90;;;;;;4992919;28;20034;-83
2022/12/09 08:45:35;;;;;;;41.13;28.20;;;1.90;99.90;;;;;;5008384;28;20033;-87
2022/12/09 08:48:02;;;;;;;51.70;35.60;;;2.20;99.90;;;;;;4988317;28;20041;-88
2022/12/09 08:50:28;;;;;;;60.20;38.40;;;2.70;99.90;;;;;;5001293;28;20027;-83
2022/12/09 08:52:54;;;;;;;49.80;30.40;;;2.90;99.90;;;;;;4995484;28;20022;-82
2022/12/09 08:55:20;;;;;;;48.20;29.60;;;2.60;99.90;;;;;;4975140;28;20060;-84
2022/12/09 08:57:46;;;;;;;46.60;27.23;;;2.40;99.90;;;;;;5008129;28;20102;-83
2022/12/09 09:00:13;;;;;;;42.10;27.13;;;2.30;99.90;;;;;;4993415;28;20038;-83
2022/12/09 09:02:39;;;;;;;51.80;31.73;;;2.40;99.90;;;;;;4976822;28;20467;-83
2022/12/09 09:05:05;;;;;;;30.27;22.20;;;2.30;99.90;;;;;;4989807;28;20054;-83
2022/12/09 09:07:32;;;;;;;49.20;31.93;;;2.20;99.90;;;;;;5008334;28;20037;-82
2022/12/09 09:09:59;;;;;;;45.00;30.83;;;2.20;99.90;;;;;;4992524;28;20034;-83
2022/12/09 09:12:26;;;;;;;47.37;30.07;;;2.20;99.90;;;;;;4993398;28;20057;-83
2022/12/09 09:14:53;;;;;;;49.43;29.57;;;2.20;99.90;;;;;;4994391;28;20043;-83
2022/12/09 09:17:20;;;;;;;41.87;24.83;;;2.30;99.90;;;;;;4976733;28;20034;-83
2022/12/09 09:19:46;;;;;;;44.93;29.37;;;2.30;99.90;;;;;;4956238;28;20086;-82
2022/12/09 09:22:12;;;;;;;45.67;30.30;;;2.30;99.90;;;;;;4988882;28;20050;-82
2022/12/09 09:24:39;;;;;;;35.13;21.17;;;2.40;99.90;;;;;;4988508;28;20034;-82
2022/12/09 09:27:05;;;;;;;47.67;32.37;;;2.40;99.90;;;;;;4973544;28;20069;-83
2022/12/09 09:29:31;;;;;;;46.87;30.10;;;2.40;99.90;;;;;;4992463;28;20053;-82
2022/12/09 09:31:57;;;;;;;47.33;30.63;;;2.50;99.90;;;;;;5005383;28;20038;-83
2022/12/09 09:34:24;;;;;;;46.90;30.63;;;2.50;99.90;;;;;;4988934;28;20027;-83
2022/12/09 09:36:50;;;;;;;44.37;27.30;;;2.50;99.90;;;;;;5021853;28;20396;-82
2022/12/09 09:39:17;;;;;;;28.07;21.73;;;2.60;99.90;;;;;;5008903;28;20034;-83
2022/12/09 09:41:56;;;;;;;44.83;26.43;;;2.60;99.90;;;;;;4990169;28;20050;-83
2022/12/09 09:44:36;;;;;;;35.00;22.50;;;2.70;99.90;;;;;;5009043;28;20379;-83
2022/12/09 09:47:09;;;;;;;44.77;28.93;;;2.70;99.90;;;;;;5004901;28;20043;-83
2022/12/09 09:49:44;;;;;;;57.27;29.10;;;2.80;99.90;;;;;;4957372;28;20035;-83
2022/12/09 09:52:17;;;;;;;20.70;16.50;;;2.90;99.90;;;;;;4958278;28;20050;-83
2022/12/09 09:54:43;;;;;;;32.47;22.07;;;2.90;99.90;;;;;;4952435;28;20035;-82
2022/12/09 09:57:14;;;;;;;22.50;17.63;;;3.00;99.90;;;;;;4967128;28;20535;-83
2022/12/09 09:59:50;;;;;;;35.50;23.92;;;3.10;99.90;;;;;;5004067;28;20027;-83
2022/12/09 10:02:20;;;;;;;27.93;20.30;;;3.10;99.90;;;;;;4978033;28;20039;-82
2022/12/09 10:04:58;;;;;;;32.03;22.03;;;3.20;99.90;;;;;;5001949;28;20035;-83
2022/12/09 10:07:40;;;;;;;25.47;20.17;;;3.30;99.90;;;;;;5018328;28;20038;-83
2022/12/09 10:10:30;;;;;;;30.80;22.07;;;3.30;99.90;;;;;;4990255;28;20026;-83
2022/12/09 10:13:19;;;;;;;26.65;18.73;;;3.30;99.90;;;;;;4990349;28;20042;-83
2022/12/09 10:16:00;;;;;;;21.13;16.07;;;3.40;99.90;;;;;;4992300;28;20041;-83
2022/12/09 10:18:51;;;;;;;24.13;19.20;;;3.40;99.90;;;;;;5007465;28;20030;-83
2022/12/09 10:21:18;;;;;;;25.05;19.13;;;3.50;99.90;;;;;;5000948;28;20046;-83
2022/12/09 10:23:44;;;;;;;18.43;16.57;;;3.50;99.90;;;;;;4990274;28;20372;-83
2022/12/09 10:26:18;;;;;;;25.13;19.73;;;3.50;99.90;;;;;;4992331;28;20053;-82
2022/12/09 10:28:46;;;;;;;31.87;24.40;;;3.60;99.90;;;;;;4994969;28;20479;-83
2022/12/09 10:31:12;;;;;;;19.37;16.17;;;3.70;99.90;;;;;;5023287;28;20037;-85
2022/12/09 10:33:39;;;;;;;30.37;19.27;;;3.70;99.90;;;;;;5023872;28;20039;-82
2022/12/09 10:36:06;;;;;;;17.67;15.97;;;3.70;99.90;;;;;;5005572;28;20039;-83
2022/12/09 10:38:35;;;;;;;21.00;17.33;;;3.70;99.90;;;;;;4968409;28;20070;-84
2022/12/09 10:41:08;;;;;;;30.37;21.43;;;3.80;99.90;;;;;;4986391;28;20161;-84
2022/12/09 10:46:03;;;;;;;36.00;25.23;;;3.90;99.90;;;;;;5006815;28;20041;-84
2022/12/09 10:48:29;;;;;;;24.03;18.77;;;4.00;99.90;;;;;;5005086;28;20042;-84
2022/12/09 10:51:00;;;;;;;36.53;24.63;;;4.10;99.90;;;;;;5013388;28;20053;-85
2022/12/09 10:53:27;;;;;;;30.90;22.70;;;4.10;99.90;;;;;;4971936;28;20035;-85
2022/12/09 10:55:54;;;;;;;33.83;25.90;;;4.20;99.90;;;;;;5010051;28;20034;-83
2022/12/09 10:58:22;;;;;;;35.20;23.47;;;4.20;99.90;;;;;;5003693;28;20038;-81
2022/12/09 11:00:59;;;;;;;33.33;24.67;;;4.30;99.90;;;;;;5007224;28;20495;-81
2022/12/09 11:03:32;;;;;;;32.03;23.77;;;4.30;99.90;;;;;;4992718;28;20479;-81
2022/12/09 11:06:11;;;;;;;33.63;23.50;;;4.40;99.90;;;;;;4988224;28;20023;-81
2022/12/09 11:08:37;;;;;;;25.13;20.90;;;4.40;99.90;;;;;;4991580;28;20468;-83
2022/12/09 11:11:03;;;;;;;28.53;23.43;;;4.50;99.90;;;;;;4977222;28;20034;-82
2022/12/09 11:13:39;;;;;;;22.90;18.33;;;4.50;99.90;;;;;;5006001;28;20030;-81
2022/12/09 11:16:06;;;;;;;29.10;22.83;;;4.50;99.90;;;;;;4998436;28;20034;-82
2022/12/09 11:18:54;;;;;;;19.50;17.60;;;4.50;99.90;;;;;;4979784;28;20049;-82
2022/12/09 11:21:31;;;;;;;18.60;16.70;;;4.50;99.90;;;;;;4972704;28;20404;-81
2022/12/09 11:23:57;;;;;;;28.93;21.87;;;4.60;99.90;;;;;;4960974;28;20042;-83
2022/12/09 11:26:32;;;;;;;29.20;23.07;;;4.60;99.90;;;;;;4993735;28;20511;-82
2022/12/09 11:29:12;;;;;;;17.47;15.90;;;4.70;99.90;;;;;;4995534;28;20046;-82
2022/12/09 11:31:38;;;;;;;31.42;24.25;;;4.70;99.90;;;;;;4989309;28;20049;-82
2022/12/09 11:34:14;;;;;;;28.70;22.90;;;4.80;99.90;;;;;;4962851;28;20038;-82
2022/12/09 11:36:54;;;;;;;18.20;16.17;;;5.00;99.90;;;;;;4979301;28;20387;-82
2022/12/09 11:39:31;;;;;;;20.17;17.50;;;5.00;99.90;;;;;;4973744;28;20519;-81
2022/12/09 11:42:16;;;;;;;24.53;21.03;;;5.00;99.90;;;;;;4978753;28;20057;-83
2022/12/09 11:45:05;;;;;;;20.47;18.40;;;5.10;99.90;;;;;;4979498;28;20496;-82
2022/12/09 11:47:32;;;;;;;26.30;22.13;;;5.10;99.90;;;;;;4976126;28;20035;-82
2022/12/09 11:50:19;;;;;;;28.73;23.63;;;5.10;99.90;;;;;;4993100;28;20033;-83
2022/12/09 11:52:45;;;;;;;23.53;20.83;;;5.20;99.90;;;;;;4992643;28;20487;-83
2022/12/09 11:55:20;;;;;;;25.80;21.70;;;5.30;99.90;;;;;;4982328;28;20057;-82
2022/12/09 11:57:57;;;;;;;25.47;21.27;;;5.20;99.90;;;;;;4974176;28;20419;-82
2022/12/09 12:00:25;;;;;;;32.20;22.83;;;5.20;99.90;;;;;;4977180;28;20042;-83
2022/12/09 12:03:12;;;;;;;29.23;22.30;;;5.20;99.90;;;;;;4988174;28;20038;-81
2022/12/09 12:05:42;;;;;;;21.07;18.97;;;5.30;99.90;;;;;;5006775;28;20026;-82
2022/12/09 12:08:23;;;;;;;20.38;18.92;;;5.30;99.90;;;;;;4999480;28;20033;-81
2022/12/09 12:11:07;;;;;;;22.87;20.50;;;5.30;99.90;;;;;;4994361;28;20042;-81
2022/12/09 12:13:39;;;;;;;21.57;19.27;;;5.30;99.90;;;;;;4971008;28;20507;-81
2022/12/09 12:16:16;;;;;;;21.80;19.50;;;5.30;99.90;;;;;;5001513;28;20033;-84
2022/12/09 12:18:51;;;;;;;27.43;22.83;;;5.30;99.90;;;;;;5009217;28;20395;-85
2022/12/09 12:21:19;;;;;;;27.47;21.80;;;5.30;99.90;;;;;;4981385;28;20041;-84
2022/12/09 12:24:27;;;;;;;30.50;23.73;;;5.40;99.90;;;;;;4992892;28;20031;-84
2022/12/09 12:27:15;;;;;;;32.27;24.53;;;5.50;99.90;;;;;;4997081;28;20046;-83
2022/12/09 12:29:51;;;;;;;26.23;22.97;;;5.60;99.90;;;;;;4975635;28;20045;-85
2022/12/09 12:32:42;;;;;;;25.90;21.87;;;5.80;99.90;;;;;;4996780;28;20034;-88
2022/12/09 12:35:44;;;;;;;29.63;23.45;;;6.00;99.90;;;;;;5007820;28;20041;-85
2022/12/09 12:38:47;;;;;;;27.57;22.40;;;6.00;99.90;;;;;;4993964;28;20387;-85
2022/12/09 12:41:21;;;;;;;20.40;18.40;;;5.90;99.90;;;;;;4995013;28;20030;-84
2022/12/09 12:46:50;;;;;;;26.37;22.47;;;5.50;99.90;;;;;;4995220;28;20037;-84
2022/12/09 12:49:30;;;;;;;18.67;16.70;;;5.60;99.90;;;;;;4993804;28;20050;-84
2022/12/09 12:52:03;;;;;;;25.08;20.27;;;5.70;99.90;;;;;;4977619;28;20046;-84
2022/12/09 12:54:47;;;;;;;27.60;21.93;;;5.60;99.90;;;;;;4994982;28;20026;-84